createdAt,value
2023-04-05T00:01:05.319Z,4.60
2023-04-05T00:05:07.944Z,5.30
2023-04-05T00:09:10.720Z,6.47
2023-04-05T00:13:12.378Z,5.27
2023-04-05T00:17:15.783Z,4.60
2023-04-05T00:21:18.047Z,4.33
2023-04-05T00:25:21.285Z,4.20
2023-04-05T00:29:23.669Z,4.50
2023-04-05T00:33:25.370Z,4.63
2023-04-05T00:37:26.975Z,3.90
2023-04-05T00:41:29.824Z,4.80
2023-04-05T00:45:31.628Z,4.17
2023-04-05T00:49:35.218Z,4.73
2023-04-05T00:53:38.076Z,4.43
2023-04-05T00:57:41.304Z,4.57
2023-04-05T01:01:43.018Z,4.63
2023-04-05T01:05:49.685Z,4.40
2023-04-05T01:09:55.874Z,4.73
2023-04-05T01:14:02.146Z,5.20
2023-04-05T01:18:04.118Z,4.43
2023-04-05T01:22:45.341Z,5.10
2023-04-05T01:26:58.610Z,4.80
2023-04-05T01:31:07.545Z,5.07
2023-04-05T01:35:16.728Z,4.93
2023-04-05T01:39:23.362Z,5.30
2023-04-05T01:43:26.263Z,5.00
2023-04-05T01:47:29.688Z,4.67
2023-04-05T01:51:32.238Z,4.87
2023-04-05T01:55:35.126Z,4.83
2023-04-05T01:59:37.239Z,4.77
2023-04-05T02:03:40.205Z,5.20
2023-04-05T02:07:41.930Z,4.90
2023-04-05T02:11:44.874Z,4.60
2023-04-05T02:15:48.162Z,4.20
2023-04-05T02:19:50.958Z,4.70
2023-04-05T02:23:52.774Z,4.67
2023-04-05T02:27:54.192Z,4.30
2023-04-05T02:31:55.931Z,4.13
2023-04-05T02:35:58.813Z,4.13
2023-04-05T02:40:00.204Z,4.67
2023-04-05T02:44:02.088Z,4.13
2023-04-05T02:48:03.806Z,4.30
2023-04-05T02:52:06.787Z,4.30
2023-04-05T02:56:10.778Z,4.00
2023-04-05T03:00:14.960Z,4.20
2023-04-05T03:04:16.614Z,4.57
2023-04-05T03:08:20.113Z,3.97
2023-04-05T03:12:22.011Z,4.50
2023-04-05T03:16:23.748Z,4.40
2023-04-05T03:20:26.683Z,3.97
2023-04-05T03:24:29.966Z,4.33
2023-04-05T03:28:31.634Z,4.20
2023-04-05T03:32:33.290Z,3.93
2023-04-05T03:36:34.759Z,4.60
2023-04-05T03:40:39.522Z,4.50
2023-04-05T03:44:40.933Z,4.37
2023-04-05T03:48:43.089Z,4.30
2023-04-05T03:52:44.673Z,4.70
2023-04-05T03:56:48.220Z,4.80
2023-04-05T04:00:49.613Z,4.87
2023-04-05T04:04:51.608Z,5.40
2023-04-05T04:08:53.240Z,5.13
2023-04-05T04:12:56.206Z,5.07
2023-04-05T04:16:57.674Z,5.30
2023-04-05T04:21:02.107Z,4.90
2023-04-05T04:25:04.000Z,4.90
2023-04-05T04:29:06.911Z,5.30
2023-04-05T04:33:09.184Z,4.93
2023-04-05T04:37:13.640Z,5.27
2023-04-05T04:41:15.065Z,5.10
2023-04-05T04:45:20.328Z,4.83
2023-04-05T04:49:21.710Z,5.20
2023-04-05T04:53:24.452Z,5.40
2023-04-05T04:57:26.172Z,5.53
2023-04-05T05:01:29.367Z,5.53
2023-04-05T05:05:30.805Z,5.40
2023-04-05T05:09:32.455Z,5.50
2023-04-05T05:13:33.867Z,5.27
2023-04-05T05:17:36.683Z,5.73
2023-04-05T05:21:38.298Z,5.33
2023-04-05T05:25:40.161Z,5.40
2023-04-05T05:29:41.633Z,5.40
2023-04-05T05:33:44.379Z,5.17
2023-04-05T05:37:45.822Z,5.13
2023-04-05T05:41:47.726Z,4.90
2023-04-05T05:45:49.458Z,4.97
2023-04-05T05:49:52.245Z,7.80
2023-04-05T05:53:54.005Z,7.83
2023-04-05T05:57:55.399Z,7.90
2023-04-05T06:01:56.901Z,6.67
2023-04-05T06:06:00.001Z,5.90
2023-04-05T06:10:01.596Z,5.53
2023-04-05T06:14:03.182Z,6.87
2023-04-05T06:18:04.710Z,5.80
2023-04-05T06:22:07.480Z,9.60
2023-04-05T06:26:09.149Z,5.97
2023-04-05T06:30:11.537Z,4.87
2023-04-05T06:34:13.176Z,5.17
2023-04-05T06:38:16.166Z,5.23
2023-04-05T06:42:18.612Z,6.40
2023-04-05T06:46:20.319Z,5.07
2023-04-05T06:50:22.841Z,4.87
2023-04-05T06:54:25.780Z,5.20
2023-04-05T06:58:27.508Z,5.03
2023-04-05T07:02:29.217Z,5.53
2023-04-05T07:06:32.163Z,6.07
2023-04-05T07:10:34.968Z,6.03
2023-04-05T07:14:37.761Z,5.80
2023-04-05T07:18:40.181Z,6.03
2023-04-05T07:22:41.700Z,5.87
2023-04-05T07:26:44.894Z,5.67
2023-04-05T07:30:46.515Z,5.30
2023-04-05T07:34:47.911Z,5.33
2023-04-05T07:38:49.736Z,5.37
2023-04-05T07:42:52.529Z,5.13
2023-04-05T07:46:56.833Z,5.73
2023-04-05T07:51:04.795Z,5.80
2023-04-05T07:55:07.313Z,5.73
2023-04-05T07:59:12.412Z,5.63
2023-04-05T08:03:19.021Z,6.30
2023-04-05T08:07:22.558Z,7.17
2023-04-05T08:11:24.145Z,6.80
2023-04-05T08:15:26.865Z,6.00
2023-04-05T08:19:28.579Z,6.90
2023-04-05T08:23:30.445Z,7.50
2023-04-05T08:27:31.857Z,6.63
2023-04-05T08:31:34.848Z,6.70
2023-04-05T08:35:36.955Z,5.80
2023-04-05T08:39:38.374Z,5.70
2023-04-05T08:43:47.489Z,6.27
2023-04-05T08:47:52.613Z,6.77
2023-04-05T08:51:54.906Z,5.40
2023-04-05T08:55:57.382Z,5.27
2023-04-05T09:00:00.988Z,5.27
2023-04-05T09:04:06.986Z,5.70
2023-04-05T09:08:09.210Z,5.43
2023-04-05T09:12:15.956Z,4.73
2023-04-05T09:16:17.784Z,5.53
2023-04-05T09:20:21.045Z,5.10
2023-04-05T09:24:30.308Z,4.60
2023-04-05T09:28:41.096Z,5.57
2023-04-05T09:32:50.925Z,5.40
2023-04-05T09:36:56.600Z,5.50
2023-04-05T09:40:58.639Z,5.77
2023-04-05T09:45:01.620Z,5.43
2023-04-05T09:49:04.175Z,5.47
2023-04-05T09:53:09.744Z,5.37
2023-04-05T09:57:12.227Z,6.00
2023-04-05T10:01:17.295Z,6.00
2023-04-05T10:05:19.056Z,5.57
2023-04-05T10:09:22.391Z,5.70
2023-04-05T10:13:24.105Z,6.17
2023-04-05T10:17:28.872Z,5.93
2023-04-05T10:21:35.772Z,6.43
2023-04-05T10:25:52.580Z,6.47
2023-04-05T10:30:04.396Z,5.53
2023-04-05T10:34:08.040Z,6.17
2023-04-05T10:38:17.208Z,6.53
2023-04-05T10:42:21.644Z,6.70
2023-04-05T10:46:24.512Z,6.37
2023-04-05T10:50:26.057Z,5.87
2023-04-05T10:54:32.660Z,6.20
2023-04-05T10:58:36.788Z,6.20
2023-04-05T11:02:38.654Z,6.83
2023-04-05T11:06:40.874Z,6.10
2023-04-05T11:10:52.614Z,6.10
2023-04-05T11:15:33.077Z,6.57
2023-04-05T11:19:50.061Z,6.43
2023-04-05T11:24:05.955Z,6.33
2023-04-05T11:28:07.793Z,5.97
2023-04-05T11:32:12.930Z,6.40
2023-04-05T11:36:29.760Z,5.00
2023-04-05T11:40:31.678Z,5.40
2023-04-05T11:44:45.142Z,5.00
2023-04-05T11:48:50.756Z,4.70
2023-04-05T11:53:08.774Z,5.40
2023-04-05T11:57:12.311Z,5.17
2023-04-05T12:01:14.944Z,5.00
2023-04-05T12:05:17.685Z,5.30
2023-04-05T12:09:19.203Z,5.37
2023-04-05T12:13:26.609Z,5.43
2023-04-05T12:17:42.194Z,5.30
2023-04-05T12:21:45.193Z,5.30
2023-04-05T12:25:47.273Z,4.90
2023-04-05T12:30:07.028Z,4.80
2023-04-05T12:34:09.611Z,6.67
2023-04-05T12:38:14.245Z,5.97
2023-04-05T12:42:17.513Z,5.97
2023-04-05T12:46:19.525Z,6.43
2023-04-05T12:50:27.010Z,6.17
2023-04-05T12:54:30.041Z,6.10
2023-04-05T12:58:36.343Z,6.53
2023-04-05T13:02:38.061Z,6.00
2023-04-05T13:06:39.599Z,6.17
2023-04-05T13:10:42.430Z,6.17
2023-04-05T13:14:43.931Z,6.23
2023-04-05T13:18:46.416Z,6.77
2023-04-05T13:22:48.130Z,6.07
2023-04-05T13:26:50.921Z,6.40
2023-04-05T13:30:54.476Z,6.40
2023-04-05T13:34:56.161Z,7.10
2023-04-05T13:38:57.777Z,6.47
2023-04-05T13:43:00.995Z,6.57
2023-04-05T13:47:02.452Z,6.43
2023-04-05T13:51:04.345Z,6.40
2023-04-05T13:55:06.795Z,6.53
2023-04-05T13:59:09.707Z,6.40
2023-04-05T14:03:11.464Z,6.10
2023-04-05T14:07:13.067Z,6.13
2023-04-05T14:11:14.628Z,7.23
2023-04-05T14:15:17.994Z,7.00
2023-04-05T14:19:21.089Z,6.53
2023-04-05T14:23:23.023Z,6.67
2023-04-05T14:27:24.542Z,6.27
2023-04-05T14:31:27.747Z,6.43
2023-04-05T14:35:29.333Z,5.97
2023-04-05T14:39:31.372Z,6.60
2023-04-05T14:43:33.297Z,7.20
2023-04-05T14:47:36.219Z,6.10
2023-04-05T14:51:37.787Z,7.07
2023-04-05T14:55:40.793Z,6.87
2023-04-05T14:59:42.749Z,6.97
2023-04-05T15:03:45.903Z,6.60
2023-04-05T15:07:47.496Z,7.33
2023-04-05T15:11:49.044Z,7.10
2023-04-05T15:15:50.572Z,6.60
2023-04-05T15:19:53.490Z,7.17
2023-04-05T15:23:55.481Z,7.10
2023-04-05T15:27:57.005Z,7.33
2023-04-05T15:31:59.075Z,7.20
2023-04-05T15:36:02.251Z,6.80
2023-04-05T15:40:04.406Z,7.30
2023-04-05T15:44:06.223Z,7.10
2023-04-05T15:48:08.854Z,7.10
2023-04-05T15:52:11.983Z,7.00
2023-04-05T15:56:13.772Z,6.93
2023-04-05T16:00:17.305Z,6.27
2023-04-05T16:04:19.193Z,6.40
2023-04-05T16:08:22.180Z,7.20
2023-04-05T16:12:23.746Z,7.27
2023-04-05T16:16:35.282Z,6.73
2023-04-05T16:20:47.400Z,7.20
2023-04-05T16:24:50.263Z,6.83
2023-04-05T16:28:51.728Z,7.03
2023-04-05T16:32:53.817Z,6.70
2023-04-05T16:36:55.316Z,6.90
2023-04-05T16:40:58.840Z,7.27
2023-04-05T16:45:00.642Z,7.03
2023-04-05T16:49:02.346Z,6.83
2023-04-05T16:53:04.495Z,7.00
2023-04-05T16:57:07.469Z,6.93
2023-04-05T17:01:10.493Z,6.40
2023-04-05T17:05:12.162Z,6.70
2023-04-05T17:09:13.707Z,6.40
2023-04-05T17:13:16.693Z,7.03
2023-04-05T17:17:18.456Z,5.90
2023-04-05T17:21:20.238Z,5.37
2023-04-05T17:25:21.817Z,5.27
2023-04-05T17:29:24.793Z,5.97
2023-04-05T17:33:27.311Z,7.30
2023-04-05T17:37:29.067Z,5.20
2023-04-05T17:41:30.924Z,5.33
2023-04-05T17:45:34.024Z,5.77
2023-04-05T17:49:35.650Z,5.47
2023-04-05T17:53:37.406Z,4.77
2023-04-05T17:57:39.139Z,4.17
2023-04-05T18:01:42.311Z,4.40
2023-04-05T18:05:44.309Z,4.77
2023-04-05T18:09:45.897Z,4.80
2023-04-05T18:13:47.399Z,4.80
2023-04-05T18:17:50.351Z,4.43
2023-04-05T18:21:51.850Z,4.17
2023-04-05T18:25:54.079Z,4.27
2023-04-05T18:29:55.651Z,4.70
2023-04-05T18:33:59.002Z,4.80
2023-04-05T18:38:00.499Z,4.20
2023-04-05T18:42:01.998Z,4.57
2023-04-05T18:46:03.848Z,4.70
2023-04-05T18:50:09.391Z,4.30
2023-04-05T18:54:11.122Z,4.20
2023-04-05T18:58:12.869Z,4.30
2023-04-05T19:02:14.500Z,4.30
2023-04-05T19:06:17.960Z,4.17
2023-04-05T19:10:19.468Z,4.30
2023-04-05T19:14:21.278Z,4.60
2023-04-05T19:18:23.212Z,4.67
2023-04-05T19:22:26.962Z,4.40
2023-04-05T19:26:28.456Z,5.13
2023-04-05T19:30:29.965Z,5.07
2023-04-05T19:34:31.685Z,5.37
2023-04-05T19:38:34.709Z,5.37
2023-04-05T19:42:36.179Z,4.63
2023-04-05T19:46:39.078Z,5.03
2023-04-05T19:50:45.448Z,5.17
2023-04-05T19:54:48.351Z,4.77
2023-04-05T19:58:55.771Z,5.40
2023-04-05T20:02:59.270Z,5.43
2023-04-05T20:07:00.780Z,5.50
2023-04-05T20:11:05.883Z,6.03
2023-04-05T20:15:12.013Z,6.83
2023-04-05T20:19:13.482Z,5.67
2023-04-05T20:23:19.271Z,6.47
2023-04-05T20:27:22.370Z,6.23
2023-04-05T20:31:25.062Z,5.87
2023-04-05T20:35:30.952Z,6.13
2023-04-05T20:39:32.792Z,5.70
2023-04-05T20:43:38.240Z,5.23
2023-04-05T20:47:39.780Z,6.33
2023-04-05T20:51:42.995Z,5.83
2023-04-05T20:55:44.748Z,5.77
2023-04-05T20:59:47.806Z,6.47
2023-04-05T21:03:49.420Z,5.80
2023-04-05T21:07:51.663Z,7.00
2023-04-05T21:11:53.209Z,6.50
2023-04-05T21:15:58.833Z,6.40
2023-04-05T21:20:00.598Z,6.93
2023-04-05T21:24:02.083Z,6.73
2023-04-05T21:28:14.073Z,6.80
2023-04-05T21:32:18.024Z,7.97
2023-04-05T21:36:19.495Z,8.23
2023-04-05T21:40:21.499Z,8.73
2023-04-05T21:44:23.035Z,8.13
2023-04-05T21:48:25.924Z,8.20
2023-04-05T21:52:27.539Z,6.33
2023-04-05T21:56:29.768Z,5.30
2023-04-05T22:00:31.293Z,5.57
2023-04-05T22:04:35.152Z,5.83
2023-04-05T22:08:37.735Z,5.97
2023-04-05T22:12:40.928Z,5.83
2023-04-05T22:16:42.949Z,6.70
2023-04-05T22:20:45.926Z,7.20
2023-04-05T22:24:47.540Z,7.67
2023-04-05T22:28:49.395Z,7.27
2023-04-05T22:32:50.979Z,7.70
2023-04-05T22:36:54.112Z,7.80
2023-04-05T22:40:55.577Z,7.40
2023-04-05T22:44:58.054Z,7.53
2023-04-05T22:48:59.618Z,7.70
2023-04-05T22:53:02.618Z,8.27
2023-04-05T22:57:04.391Z,8.50
2023-04-05T23:01:13.017Z,8.73
2023-04-05T23:05:14.744Z,8.60
2023-04-05T23:09:17.641Z,7.73
2023-04-05T23:13:19.152Z,7.53
2023-04-05T23:17:20.727Z,7.40
2023-04-05T23:21:22.558Z,6.97
2023-04-05T23:25:26.423Z,7.47
2023-04-05T23:29:27.969Z,7.83
2023-04-05T23:33:30.241Z,7.50
2023-04-05T23:37:32.007Z,7.30
2023-04-05T23:41:35.011Z,7.83
2023-04-05T23:45:36.581Z,7.30
2023-04-05T23:49:38.144Z,7.53
2023-04-05T23:53:40.418Z,7.87
2023-04-05T23:57:43.777Z,7.67
